sensor_id;sensor_type;location;lat;lon;timestamp;P1;durP1;ratioP1;P2;durP2;ratioP2
4430;SDS011;2228;48.140;11.488;2022-12-18T00:01:14;58.08;;;26.55;;
4430;SDS011;2228;48.140;11.488;2022-12-18T00:03:43;55.05;;;25.42;;
4430;SDS011;2228;48.140;11.488;2022-12-18T00:06:11;61.17;;;26.17;;
4430;SDS011;2228;48.140;11.488;2022-12-18T00:08:38;58.75;;;26.42;;
4430;SDS011;2228;48.140;11.488;2022-12-18T00:11:06;56.83;;;24.80;;
4430;SDS011;2228;48.140;11.488;2022-12-18T00:13:34;58.83;;;25.10;;
4430;SDS011;2228;48.140;11.488;2022-12-18T00:16:01;56.80;;;24.50;;
4430;SDS011;2228;48.140;11.488;2022-12-18T00:18:31;60.17;;;26.23;;
4430;SDS011;2228;48.140;11.488;2022-12-18T00:20:58;60.47;;;25.87;;
4430;SDS011;2228;48.140;11.488;2022-12-18T00:23:26;58.15;;;24.40;;
4430;SDS011;2228;48.140;11.488;2022-12-18T00:25:53;52.60;;;23.70;;
4430;SDS011;2228;48.140;11.488;2022-12-18T00:28:21;58.63;;;23.80;;
4430;SDS011;2228;48.140;11.488;2022-12-18T00:30:47;63.25;;;26.92;;
4430;SDS011;2228;48.140;11.488;2022-12-18T00:33:16;56.83;;;24.73;;
4430;SDS011;2228;48.140;11.488;2022-12-18T00:35:44;65.70;;;27.23;;
4430;SDS011;2228;48.140;11.488;2022-12-18T00:38:12;57.45;;;24.90;;
4430;SDS011;2228;48.140;11.488;2022-12-18T00:40:39;58.63;;;24.02;;
4430;SDS011;2228;48.140;11.488;2022-12-18T00:43:06;56.60;;;24.38;;
4430;SDS011;2228;48.140;11.488;2022-12-18T00:45:32;59.17;;;25.13;;
4430;SDS011;2228;48.140;11.488;2022-12-18T00:47:59;57.50;;;24.10;;
4430;SDS011;2228;48.140;11.488;2022-12-18T00:50:26;60.47;;;26.25;;
4430;SDS011;2228;48.140;11.488;2022-12-18T00:52:54;61.58;;;27.42;;
4430;SDS011;2228;48.140;11.488;2022-12-18T00:55:21;68.07;;;27.00;;
4430;SDS011;2228;48.140;11.488;2022-12-18T00:57:49;73.65;;;30.55;;
4430;SDS011;2228;48.140;11.488;2022-12-18T01:00:17;79.53;;;29.63;;
4430;SDS011;2228;48.140;11.488;2022-12-18T01:02:44;78.53;;;29.88;;
4430;SDS011;2228;48.140;11.488;2022-12-18T01:05:12;76.35;;;30.52;;
4430;SDS011;2228;48.140;11.488;2022-12-18T01:07:39;68.88;;;27.77;;
4430;SDS011;2228;48.140;11.488;2022-12-18T01:10:09;71.78;;;28.02;;
4430;SDS011;2228;48.140;11.488;2022-12-18T01:12:37;76.07;;;29.60;;
4430;SDS011;2228;48.140;11.488;2022-12-18T01:15:05;63.65;;;25.52;;
4430;SDS011;2228;48.140;11.488;2022-12-18T01:17:33;59.95;;;24.98;;
4430;SDS011;2228;48.140;11.488;2022-12-18T01:20:00;53.30;;;23.73;;
4430;SDS011;2228;48.140;11.488;2022-12-18T01:22:27;59.00;;;23.88;;
4430;SDS011;2228;48.140;11.488;2022-12-18T01:24:54;58.03;;;24.03;;
4430;SDS011;2228;48.140;11.488;2022-12-18T01:27:23;58.90;;;25.52;;
4430;SDS011;2228;48.140;11.488;2022-12-18T01:29:50;68.25;;;26.13;;
4430;SDS011;2228;48.140;11.488;2022-12-18T01:32:17;60.42;;;26.08;;
4430;SDS011;2228;48.140;11.488;2022-12-18T01:34:45;53.20;;;23.80;;
4430;SDS011;2228;48.140;11.488;2022-12-18T01:37:12;58.63;;;23.63;;
4430;SDS011;2228;48.140;11.488;2022-12-18T01:39:39;57.17;;;24.20;;
4430;SDS011;2228;48.140;11.488;2022-12-18T01:42:08;56.53;;;24.60;;
4430;SDS011;2228;48.140;11.488;2022-12-18T01:44:55;52.13;;;22.60;;
4430;SDS011;2228;48.140;11.488;2022-12-18T01:47:25;53.53;;;23.08;;
4430;SDS011;2228;48.140;11.488;2022-12-18T01:49:55;51.03;;;21.75;;
4430;SDS011;2228;48.140;11.488;2022-12-18T01:52:23;47.67;;;21.05;;
4430;SDS011;2228;48.140;11.488;2022-12-18T01:54:52;55.45;;;24.65;;
4430;SDS011;2228;48.140;11.488;2022-12-18T01:57:20;50.90;;;22.55;;
4430;SDS011;2228;48.140;11.488;2022-12-18T01:59:50;51.60;;;22.90;;
4430;SDS011;2228;48.140;11.488;2022-12-18T02:02:21;52.28;;;22.63;;
4430;SDS011;2228;48.140;11.488;2022-12-18T02:04:48;54.20;;;23.55;;
4430;SDS011;2228;48.140;11.488;2022-12-18T02:07:17;57.13;;;24.70;;
4430;SDS011;2228;48.140;11.488;2022-12-18T02:09:52;60.10;;;24.23;;
4430;SDS011;2228;48.140;11.488;2022-12-18T02:12:25;57.78;;;25.02;;
4430;SDS011;2228;48.140;11.488;2022-12-18T02:14:58;61.42;;;24.75;;
4430;SDS011;2228;48.140;11.488;2022-12-18T02:17:34;63.75;;;25.55;;
4430;SDS011;2228;48.140;11.488;2022-12-18T02:20:05;61.05;;;25.38;;
4430;SDS011;2228;48.140;11.488;2022-12-18T02:22:41;53.92;;;24.38;;
4430;SDS011;2228;48.140;11.488;2022-12-18T02:25:22;60.25;;;24.85;;
4430;SDS011;2228;48.140;11.488;2022-12-18T02:28:00;58.10;;;24.95;;
4430;SDS011;2228;48.140;11.488;2022-12-18T02:30:30;58.28;;;25.48;;
4430;SDS011;2228;48.140;11.488;2022-12-18T02:32:59;58.75;;;24.23;;
4430;SDS011;2228;48.140;11.488;2022-12-18T02:35:29;63.13;;;25.77;;
4430;SDS011;2228;48.140;11.488;2022-12-18T02:37:57;65.97;;;26.77;;
4430;SDS011;2228;48.140;11.488;2022-12-18T02:40:25;65.10;;;25.75;;
4430;SDS011;2228;48.140;11.488;2022-12-18T02:42:53;72.43;;;28.43;;
4430;SDS011;2228;48.140;11.488;2022-12-18T02:45:22;67.95;;;27.00;;
4430;SDS011;2228;48.140;11.488;2022-12-18T02:47:49;69.67;;;27.77;;
4430;SDS011;2228;48.140;11.488;2022-12-18T02:50:18;70.70;;;27.15;;
4430;SDS011;2228;48.140;11.488;2022-12-18T02:52:55;65.53;;;26.50;;
4430;SDS011;2228;48.140;11.488;2022-12-18T02:55:35;67.75;;;27.08;;
4430;SDS011;2228;48.140;11.488;2022-12-18T02:58:13;70.50;;;25.97;;
4430;SDS011;2228;48.140;11.488;2022-12-18T03:00:47;75.50;;;28.03;;
4430;SDS011;2228;48.140;11.488;2022-12-18T03:03:21;64.32;;;26.60;;
4430;SDS011;2228;48.140;11.488;2022-12-18T03:05:52;61.20;;;26.20;;
4430;SDS011;2228;48.140;11.488;2022-12-18T03:08:22;68.65;;;26.88;;
4430;SDS011;2228;48.140;11.488;2022-12-18T03:10:51;66.45;;;25.25;;
4430;SDS011;2228;48.140;11.488;2022-12-18T03:13:23;69.35;;;26.80;;
4430;SDS011;2228;48.140;11.488;2022-12-18T03:15:56;71.95;;;28.17;;
4430;SDS011;2228;48.140;11.488;2022-12-18T03:18:25;74.05;;;28.98;;
4430;SDS011;2228;48.140;11.488;2022-12-18T03:20:56;78.30;;;29.13;;
4430;SDS011;2228;48.140;11.488;2022-12-18T03:23:29;71.60;;;27.50;;
4430;SDS011;2228;48.140;11.488;2022-12-18T03:26:03;68.55;;;26.55;;
4430;SDS011;2228;48.140;11.488;2022-12-18T03:28:33;81.32;;;27.95;;
4430;SDS011;2228;48.140;11.488;2022-12-18T03:31:05;72.43;;;28.95;;
4430;SDS011;2228;48.140;11.488;2022-12-18T03:33:37;73.10;;;28.08;;
4430;SDS011;2228;48.140;11.488;2022-12-18T03:36:07;70.38;;;27.83;;
4430;SDS011;2228;48.140;11.488;2022-12-18T03:38:34;73.30;;;29.08;;
4430;SDS011;2228;48.140;11.488;2022-12-18T03:41:03;72.07;;;28.10;;
4430;SDS011;2228;48.140;11.488;2022-12-18T03:43:39;72.60;;;28.02;;
4430;SDS011;2228;48.140;11.488;2022-12-18T03:46:17;70.43;;;28.40;;
4430;SDS011;2228;48.140;11.488;2022-12-18T03:48:51;61.83;;;26.40;;
4430;SDS011;2228;48.140;11.488;2022-12-18T03:51:24;65.10;;;26.45;;
4430;SDS011;2228;48.140;11.488;2022-12-18T03:53:57;60.22;;;26.85;;
4430;SDS011;2228;48.140;11.488;2022-12-18T03:56:28;64.55;;;26.15;;
4430;SDS011;2228;48.140;11.488;2022-12-18T03:58:58;64.55;;;26.98;;
4430;SDS011;2228;48.140;11.488;2022-12-18T04:01:30;66.00;;;26.33;;
4430;SDS011;2228;48.140;11.488;2022-12-18T04:04:00;65.72;;;27.90;;
4430;SDS011;2228;48.140;11.488;2022-12-18T04:06:28;65.18;;;26.52;;
4430;SDS011;2228;48.140;11.488;2022-12-18T04:08:57;65.38;;;28.13;;
4430;SDS011;2228;48.140;11.488;2022-12-18T04:11:24;69.95;;;27.63;;
4430;SDS011;2228;48.140;11.488;2022-12-18T04:13:56;67.95;;;26.45;;
4430;SDS011;2228;48.140;11.488;2022-12-18T04:16:24;62.55;;;27.30;;
4430;SDS011;2228;48.140;11.488;2022-12-18T04:18:52;63.03;;;27.75;;
4430;SDS011;2228;48.140;11.488;2022-12-18T04:21:20;63.35;;;27.42;;
4430;SDS011;2228;48.140;11.488;2022-12-18T04:23:47;66.90;;;28.40;;
4430;SDS011;2228;48.140;11.488;2022-12-18T04:26:15;67.47;;;27.05;;
4430;SDS011;2228;48.140;11.488;2022-12-18T04:28:41;67.95;;;27.40;;
4430;SDS011;2228;48.140;11.488;2022-12-18T04:31:08;65.47;;;27.13;;
4430;SDS011;2228;48.140;11.488;2022-12-18T04:33:35;67.03;;;27.13;;
4430;SDS011;2228;48.140;11.488;2022-12-18T04:36:04;66.60;;;28.05;;
4430;SDS011;2228;48.140;11.488;2022-12-18T04:38:32;69.47;;;28.40;;
4430;SDS011;2228;48.140;11.488;2022-12-18T04:40:59;65.65;;;27.15;;
4430;SDS011;2228;48.140;11.488;2022-12-18T04:43:26;69.22;;;28.63;;
4430;SDS011;2228;48.140;11.488;2022-12-18T04:45:53;64.82;;;26.55;;
4430;SDS011;2228;48.140;11.488;2022-12-18T04:48:20;58.05;;;26.00;;
4430;SDS011;2228;48.140;11.488;2022-12-18T04:50:47;63.83;;;27.77;;
4430;SDS011;2228;48.140;11.488;2022-12-18T04:53:15;60.10;;;26.23;;
4430;SDS011;2228;48.140;11.488;2022-12-18T04:55:42;67.45;;;27.45;;
4430;SDS011;2228;48.140;11.488;2022-12-18T04:58:09;64.25;;;27.33;;
4430;SDS011;2228;48.140;11.488;2022-12-18T05:00:36;64.30;;;26.87;;
4430;SDS011;2228;48.140;11.488;2022-12-18T05:03:03;67.03;;;27.88;;
4430;SDS011;2228;48.140;11.488;2022-12-18T05:05:30;65.32;;;27.10;;
4430;SDS011;2228;48.140;11.488;2022-12-18T05:07:57;58.63;;;26.23;;
4430;SDS011;2228;48.140;11.488;2022-12-18T05:10:25;56.38;;;25.55;;
4430;SDS011;2228;48.140;11.488;2022-12-18T05:12:52;58.90;;;24.45;;
4430;SDS011;2228;48.140;11.488;2022-12-18T05:15:27;57.72;;;24.40;;
4430;SDS011;2228;48.140;11.488;2022-12-18T05:17:54;55.50;;;23.53;;
4430;SDS011;2228;48.140;11.488;2022-12-18T05:20:22;61.42;;;25.77;;
4430;SDS011;2228;48.140;11.488;2022-12-18T05:22:49;56.08;;;23.70;;
4430;SDS011;2228;48.140;11.488;2022-12-18T05:25:17;58.20;;;23.77;;
4430;SDS011;2228;48.140;11.488;2022-12-18T05:27:46;61.00;;;26.02;;
4430;SDS011;2228;48.140;11.488;2022-12-18T05:30:13;54.83;;;23.60;;
4430;SDS011;2228;48.140;11.488;2022-12-18T05:32:41;57.33;;;24.50;;
4430;SDS011;2228;48.140;11.488;2022-12-18T05:35:09;53.63;;;24.02;;
4430;SDS011;2228;48.140;11.488;2022-12-18T05:37:37;60.63;;;25.05;;
4430;SDS011;2228;48.140;11.488;2022-12-18T05:40:04;54.80;;;23.55;;
4430;SDS011;2228;48.140;11.488;2022-12-18T05:42:33;54.83;;;22.77;;
4430;SDS011;2228;48.140;11.488;2022-12-18T05:45:01;52.92;;;22.58;;
4430;SDS011;2228;48.140;11.488;2022-12-18T05:47:29;49.55;;;21.75;;
4430;SDS011;2228;48.140;11.488;2022-12-18T05:49:56;48.78;;;21.10;;
4430;SDS011;2228;48.140;11.488;2022-12-18T05:52:23;46.47;;;21.50;;
4430;SDS011;2228;48.140;11.488;2022-12-18T05:54:50;48.00;;;21.20;;
4430;SDS011;2228;48.140;11.488;2022-12-18T05:57:17;49.95;;;22.48;;
4430;SDS011;2228;48.140;11.488;2022-12-18T05:59:44;51.10;;;22.50;;
4430;SDS011;2228;48.140;11.488;2022-12-18T06:02:12;52.23;;;22.70;;
4430;SDS011;2228;48.140;11.488;2022-12-18T06:04:39;52.63;;;23.15;;
4430;SDS011;2228;48.140;11.488;2022-12-18T06:07:06;50.65;;;22.60;;
4430;SDS011;2228;48.140;11.488;2022-12-18T06:09:33;53.03;;;23.83;;
4430;SDS011;2228;48.140;11.488;2022-12-18T06:12:00;47.25;;;22.63;;
4430;SDS011;2228;48.140;11.488;2022-12-18T06:14:27;46.88;;;21.80;;
4430;SDS011;2228;48.140;11.488;2022-12-18T06:16:54;55.00;;;22.87;;
4430;SDS011;2228;48.140;11.488;2022-12-18T06:19:23;51.10;;;22.02;;
4430;SDS011;2228;48.140;11.488;2022-12-18T06:21:51;52.93;;;24.17;;
4430;SDS011;2228;48.140;11.488;2022-12-18T06:24:18;52.80;;;22.83;;
4430;SDS011;2228;48.140;11.488;2022-12-18T06:26:45;51.63;;;23.20;;
4430;SDS011;2228;48.140;11.488;2022-12-18T06:29:12;50.15;;;22.83;;
4430;SDS011;2228;48.140;11.488;2022-12-18T06:31:39;50.85;;;22.63;;
4430;SDS011;2228;48.140;11.488;2022-12-18T06:34:06;49.28;;;23.30;;
4430;SDS011;2228;48.140;11.488;2022-12-18T06:36:34;52.27;;;23.47;;
4430;SDS011;2228;48.140;11.488;2022-12-18T06:39:01;49.83;;;22.10;;
4430;SDS011;2228;48.140;11.488;2022-12-18T06:41:28;40.25;;;19.98;;
4430;SDS011;2228;48.140;11.488;2022-12-18T06:43:55;47.43;;;21.80;;
4430;SDS011;2228;48.140;11.488;2022-12-18T06:46:23;49.00;;;22.55;;
4430;SDS011;2228;48.140;11.488;2022-12-18T06:48:50;49.25;;;22.45;;
4430;SDS011;2228;48.140;11.488;2022-12-18T06:51:18;52.17;;;22.77;;
4430;SDS011;2228;48.140;11.488;2022-12-18T06:53:48;53.83;;;23.08;;
4430;SDS011;2228;48.140;11.488;2022-12-18T06:56:15;50.28;;;22.30;;
4430;SDS011;2228;48.140;11.488;2022-12-18T06:58:42;51.08;;;22.02;;
4430;SDS011;2228;48.140;11.488;2022-12-18T07:01:10;51.55;;;22.02;;
4430;SDS011;2228;48.140;11.488;2022-12-18T07:03:38;51.42;;;23.05;;
4430;SDS011;2228;48.140;11.488;2022-12-18T07:06:06;50.03;;;21.20;;
4430;SDS011;2228;48.140;11.488;2022-12-18T07:08:39;50.70;;;20.93;;
4430;SDS011;2228;48.140;11.488;2022-12-18T07:11:08;50.50;;;23.17;;
4430;SDS011;2228;48.140;11.488;2022-12-18T07:13:35;47.53;;;21.77;;
4430;SDS011;2228;48.140;11.488;2022-12-18T07:16:03;48.07;;;21.23;;
4430;SDS011;2228;48.140;11.488;2022-12-18T07:18:31;47.70;;;21.23;;
4430;SDS011;2228;48.140;11.488;2022-12-18T07:21:02;50.05;;;22.38;;
4430;SDS011;2228;48.140;11.488;2022-12-18T07:23:31;52.53;;;23.27;;
4430;SDS011;2228;48.140;11.488;2022-12-18T07:26:00;49.83;;;22.30;;
4430;SDS011;2228;48.140;11.488;2022-12-18T07:28:29;51.33;;;23.38;;
4430;SDS011;2228;48.140;11.488;2022-12-18T07:30:57;47.85;;;22.55;;
4430;SDS011;2228;48.140;11.488;2022-12-18T07:33:25;51.83;;;22.70;;
4430;SDS011;2228;48.140;11.488;2022-12-18T07:35:52;50.92;;;22.45;;
4430;SDS011;2228;48.140;11.488;2022-12-18T07:38:19;44.10;;;20.30;;
4430;SDS011;2228;48.140;11.488;2022-12-18T07:40:46;45.38;;;20.75;;
4430;SDS011;2228;48.140;11.488;2022-12-18T07:43:13;40.60;;;19.38;;
4430;SDS011;2228;48.140;11.488;2022-12-18T07:45:41;45.30;;;21.50;;
4430;SDS011;2228;48.140;11.488;2022-12-18T07:48:08;50.30;;;21.23;;
4430;SDS011;2228;48.140;11.488;2022-12-18T07:50:36;49.60;;;22.63;;
4430;SDS011;2228;48.140;11.488;2022-12-18T07:53:03;52.08;;;21.23;;
4430;SDS011;2228;48.140;11.488;2022-12-18T07:55:30;47.65;;;20.90;;
4430;SDS011;2228;48.140;11.488;2022-12-18T07:58:00;50.63;;;21.80;;
4430;SDS011;2228;48.140;11.488;2022-12-18T08:00:28;46.47;;;20.90;;
4430;SDS011;2228;48.140;11.488;2022-12-18T08:02:57;46.65;;;21.65;;
4430;SDS011;2228;48.140;11.488;2022-12-18T08:05:24;44.53;;;20.20;;
4430;SDS011;2228;48.140;11.488;2022-12-18T08:07:51;50.55;;;20.90;;
4430;SDS011;2228;48.140;11.488;2022-12-18T08:10:19;46.58;;;21.55;;
4430;SDS011;2228;48.140;11.488;2022-12-18T08:12:48;42.85;;;19.95;;
4430;SDS011;2228;48.140;11.488;2022-12-18T08:15:16;46.33;;;20.75;;
4430;SDS011;2228;48.140;11.488;2022-12-18T08:17:43;50.33;;;21.05;;
4430;SDS011;2228;48.140;11.488;2022-12-18T08:20:11;46.45;;;20.60;;
4430;SDS011;2228;48.140;11.488;2022-12-18T08:22:40;44.83;;;20.42;;
4430;SDS011;2228;48.140;11.488;2022-12-18T08:25:07;43.20;;;19.58;;
4430;SDS011;2228;48.140;11.488;2022-12-18T08:27:34;42.00;;;20.60;;
4430;SDS011;2228;48.140;11.488;2022-12-18T08:30:02;44.92;;;20.35;;
4430;SDS011;2228;48.140;11.488;2022-12-18T08:32:30;43.42;;;20.33;;
4430;SDS011;2228;48.140;11.488;2022-12-18T08:34:59;47.45;;;20.10;;
4430;SDS011;2228;48.140;11.488;2022-12-18T08:37:31;42.00;;;20.30;;
4430;SDS011;2228;48.140;11.488;2022-12-18T08:39:58;44.75;;;20.75;;
4430;SDS011;2228;48.140;11.488;2022-12-18T08:42:25;42.47;;;19.73;;
4430;SDS011;2228;48.140;11.488;2022-12-18T08:45:09;44.22;;;20.25;;
4430;SDS011;2228;48.140;11.488;2022-12-18T08:47:36;41.78;;;19.65;;
4430;SDS011;2228;48.140;11.488;2022-12-18T08:50:04;44.40;;;19.33;;
4430;SDS011;2228;48.140;11.488;2022-12-18T08:52:33;44.20;;;20.73;;
4430;SDS011;2228;48.140;11.488;2022-12-18T08:55:00;43.25;;;20.38;;
4430;SDS011;2228;48.140;11.488;2022-12-18T08:57:27;43.50;;;19.30;;
4430;SDS011;2228;48.140;11.488;2022-12-18T08:59:54;41.30;;;19.40;;
4430;SDS011;2228;48.140;11.488;2022-12-18T09:02:20;44.38;;;19.75;;
4430;SDS011;2228;48.140;11.488;2022-12-18T09:04:48;44.30;;;20.67;;
4430;SDS011;2228;48.140;11.488;2022-12-18T09:07:15;43.63;;;21.65;;
4430;SDS011;2228;48.140;11.488;2022-12-18T09:09:43;43.63;;;20.33;;
4430;SDS011;2228;48.140;11.488;2022-12-18T09:12:10;42.65;;;19.30;;
4430;SDS011;2228;48.140;11.488;2022-12-18T09:14:37;44.80;;;20.60;;
4430;SDS011;2228;48.140;11.488;2022-12-18T09:17:04;41.50;;;20.40;;
4430;SDS011;2228;48.140;11.488;2022-12-18T09:19:31;44.50;;;20.07;;
4430;SDS011;2228;48.140;11.488;2022-12-18T09:21:58;42.33;;;20.27;;
4430;SDS011;2228;48.140;11.488;2022-12-18T09:24:25;46.95;;;19.75;;
4430;SDS011;2228;48.140;11.488;2022-12-18T09:26:54;45.15;;;20.40;;
4430;SDS011;2228;48.140;11.488;2022-12-18T09:29:21;43.47;;;20.85;;
4430;SDS011;2228;48.140;11.488;2022-12-18T09:31:48;38.43;;;17.77;;
4430;SDS011;2228;48.140;11.488;2022-12-18T09:34:15;38.67;;;19.20;;
4430;SDS011;2228;48.140;11.488;2022-12-18T09:36:42;41.35;;;19.30;;
4430;SDS011;2228;48.140;11.488;2022-12-18T09:39:10;40.00;;;19.70;;
4430;SDS011;2228;48.140;11.488;2022-12-18T09:41:44;41.47;;;19.60;;
4430;SDS011;2228;48.140;11.488;2022-12-18T09:44:26;39.78;;;18.60;;
4430;SDS011;2228;48.140;11.488;2022-12-18T09:47:06;35.77;;;17.00;;
4430;SDS011;2228;48.140;11.488;2022-12-18T09:49:39;40.78;;;19.65;;
4430;SDS011;2228;48.140;11.488;2022-12-18T09:52:11;41.85;;;19.35;;
4430;SDS011;2228;48.140;11.488;2022-12-18T09:54:42;41.20;;;19.30;;
4430;SDS011;2228;48.140;11.488;2022-12-18T09:57:13;40.70;;;18.42;;
4430;SDS011;2228;48.140;11.488;2022-12-18T09:59:48;41.65;;;19.15;;
4430;SDS011;2228;48.140;11.488;2022-12-18T10:02:20;38.72;;;18.80;;
4430;SDS011;2228;48.140;11.488;2022-12-18T10:04:52;35.35;;;18.27;;
4430;SDS011;2228;48.140;11.488;2022-12-18T10:07:33;38.83;;;17.85;;
4430;SDS011;2228;48.140;11.488;2022-12-18T10:10:14;41.45;;;19.00;;
4430;SDS011;2228;48.140;11.488;2022-12-18T10:12:55;40.50;;;19.65;;
4430;SDS011;2228;48.140;11.488;2022-12-18T10:15:30;37.22;;;19.02;;
4430;SDS011;2228;48.140;11.488;2022-12-18T10:18:04;38.65;;;18.35;;
4430;SDS011;2228;48.140;11.488;2022-12-18T10:20:40;37.28;;;18.02;;
4430;SDS011;2228;48.140;11.488;2022-12-18T10:23:12;37.92;;;18.02;;
4430;SDS011;2228;48.140;11.488;2022-12-18T10:25:50;35.17;;;16.90;;
4430;SDS011;2228;48.140;11.488;2022-12-18T10:28:21;37.10;;;18.13;;
4430;SDS011;2228;48.140;11.488;2022-12-18T10:30:51;34.63;;;17.50;;
4430;SDS011;2228;48.140;11.488;2022-12-18T10:33:19;40.72;;;18.48;;
4430;SDS011;2228;48.140;11.488;2022-12-18T10:35:49;39.08;;;18.77;;
4430;SDS011;2228;48.140;11.488;2022-12-18T10:38:21;39.33;;;19.50;;
4430;SDS011;2228;48.140;11.488;2022-12-18T10:40:50;38.95;;;18.23;;
4430;SDS011;2228;48.140;11.488;2022-12-18T10:43:20;39.10;;;17.83;;
4430;SDS011;2228;48.140;11.488;2022-12-18T10:46:14;40.78;;;20.20;;
4430;SDS011;2228;48.140;11.488;2022-12-18T10:48:51;35.00;;;18.03;;
4430;SDS011;2228;48.140;11.488;2022-12-18T10:51:21;38.63;;;19.13;;
4430;SDS011;2228;48.140;11.488;2022-12-18T10:53:57;41.08;;;20.30;;
4430;SDS011;2228;48.140;11.488;2022-12-18T10:56:27;38.80;;;19.20;;
4430;SDS011;2228;48.140;11.488;2022-12-18T10:58:56;39.05;;;19.70;;
4430;SDS011;2228;48.140;11.488;2022-12-18T11:01:27;38.45;;;19.52;;
4430;SDS011;2228;48.140;11.488;2022-12-18T11:04:13;36.58;;;19.73;;
4430;SDS011;2228;48.140;11.488;2022-12-18T11:06:52;40.22;;;19.13;;
4430;SDS011;2228;48.140;11.488;2022-12-18T11:09:24;39.17;;;17.85;;
4430;SDS011;2228;48.140;11.488;2022-12-18T11:11:53;39.22;;;19.83;;
4430;SDS011;2228;48.140;11.488;2022-12-18T11:14:25;40.70;;;20.02;;
4430;SDS011;2228;48.140;11.488;2022-12-18T11:16:55;42.60;;;19.35;;
4430;SDS011;2228;48.140;11.488;2022-12-18T11:19:32;38.67;;;19.38;;
4430;SDS011;2228;48.140;11.488;2022-12-18T11:22:02;38.08;;;18.80;;
4430;SDS011;2228;48.140;11.488;2022-12-18T11:24:49;40.47;;;19.67;;
4430;SDS011;2228;48.140;11.488;2022-12-18T11:27:20;40.60;;;19.98;;
4430;SDS011;2228;48.140;11.488;2022-12-18T11:29:47;41.83;;;21.33;;
4430;SDS011;2228;48.140;11.488;2022-12-18T11:32:31;41.38;;;21.23;;
4430;SDS011;2228;48.140;11.488;2022-12-18T11:35:03;40.60;;;19.10;;
4430;SDS011;2228;48.140;11.488;2022-12-18T11:37:37;36.55;;;18.90;;
4430;SDS011;2228;48.140;11.488;2022-12-18T11:40:10;39.50;;;18.83;;
4430;SDS011;2228;48.140;11.488;2022-12-18T11:42:41;37.13;;;18.90;;
4430;SDS011;2228;48.140;11.488;2022-12-18T11:45:25;34.70;;;18.10;;
4430;SDS011;2228;48.140;11.488;2022-12-18T11:47:58;32.20;;;16.58;;
4430;SDS011;2228;48.140;11.488;2022-12-18T11:50:29;40.08;;;18.95;;
4430;SDS011;2228;48.140;11.488;2022-12-18T11:53:00;35.55;;;17.27;;
4430;SDS011;2228;48.140;11.488;2022-12-18T11:55:31;37.45;;;18.70;;
4430;SDS011;2228;48.140;11.488;2022-12-18T11:58:07;37.00;;;17.60;;
4430;SDS011;2228;48.140;11.488;2022-12-18T12:00:40;35.15;;;17.48;;
4430;SDS011;2228;48.140;11.488;2022-12-18T12:03:21;39.50;;;18.25;;
4430;SDS011;2228;48.140;11.488;2022-12-18T12:06:06;35.42;;;17.08;;
4430;SDS011;2228;48.140;11.488;2022-12-18T12:08:42;34.33;;;17.98;;
4430;SDS011;2228;48.140;11.488;2022-12-18T12:11:25;35.38;;;17.30;;
4430;SDS011;2228;48.140;11.488;2022-12-18T12:14:03;35.63;;;17.67;;
4430;SDS011;2228;48.140;11.488;2022-12-18T12:16:46;36.88;;;18.33;;
4430;SDS011;2228;48.140;11.488;2022-12-18T12:19:23;35.28;;;17.75;;
4430;SDS011;2228;48.140;11.488;2022-12-18T12:22:03;36.50;;;18.33;;
4430;SDS011;2228;48.140;11.488;2022-12-18T12:24:37;34.63;;;17.70;;
4430;SDS011;2228;48.140;11.488;2022-12-18T12:27:17;37.00;;;17.90;;
4430;SDS011;2228;48.140;11.488;2022-12-18T12:29:56;36.42;;;16.98;;
4430;SDS011;2228;48.140;11.488;2022-12-18T12:32:32;37.20;;;17.70;;
4430;SDS011;2228;48.140;11.488;2022-12-18T12:35:14;41.00;;;21.02;;
4430;SDS011;2228;48.140;11.488;2022-12-18T12:37:57;39.50;;;20.17;;
4430;SDS011;2228;48.140;11.488;2022-12-18T12:40:33;35.55;;;18.10;;
4430;SDS011;2228;48.140;11.488;2022-12-18T12:43:07;39.72;;;20.38;;
4430;SDS011;2228;48.140;11.488;2022-12-18T12:45:45;39.42;;;19.67;;
4430;SDS011;2228;48.140;11.488;2022-12-18T12:48:16;36.08;;;17.48;;
4430;SDS011;2228;48.140;11.488;2022-12-18T12:50:51;39.00;;;20.88;;
4430;SDS011;2228;48.140;11.488;2022-12-18T12:53:25;35.45;;;17.98;;
4430;SDS011;2228;48.140;11.488;2022-12-18T12:55:55;39.17;;;20.00;;
4430;SDS011;2228;48.140;11.488;2022-12-18T12:58:26;36.67;;;18.90;;
4430;SDS011;2228;48.140;11.488;2022-12-18T13:01:01;34.58;;;17.98;;
4430;SDS011;2228;48.140;11.488;2022-12-18T13:03:39;54.25;;;25.35;;
4430;SDS011;2228;48.140;11.488;2022-12-18T13:06:16;57.03;;;26.55;;
4430;SDS011;2228;48.140;11.488;2022-12-18T13:08:52;44.67;;;21.42;;
4430;SDS011;2228;48.140;11.488;2022-12-18T13:11:37;36.67;;;18.05;;
4430;SDS011;2228;48.140;11.488;2022-12-18T13:14:24;34.22;;;17.92;;
4430;SDS011;2228;48.140;11.488;2022-12-18T13:20:09;36.55;;;17.33;;
4430;SDS011;2228;48.140;11.488;2022-12-18T13:22:40;33.27;;;16.93;;
4430;SDS011;2228;48.140;11.488;2022-12-18T13:28:10;37.97;;;19.47;;
4430;SDS011;2228;48.140;11.488;2022-12-18T13:36:16;39.78;;;17.80;;
4430;SDS011;2228;48.140;11.488;2022-12-18T13:39:21;36.78;;;16.88;;
4430;SDS011;2228;48.140;11.488;2022-12-18T13:45:40;37.80;;;17.38;;
4430;SDS011;2228;48.140;11.488;2022-12-18T13:48:15;36.33;;;18.02;;
4430;SDS011;2228;48.140;11.488;2022-12-18T13:50:48;38.28;;;18.05;;
4430;SDS011;2228;48.140;11.488;2022-12-18T13:53:21;37.90;;;17.67;;
4430;SDS011;2228;48.140;11.488;2022-12-18T13:55:54;35.80;;;17.48;;
4430;SDS011;2228;48.140;11.488;2022-12-18T13:58:21;34.78;;;17.50;;
4430;SDS011;2228;48.140;11.488;2022-12-18T14:00:48;37.00;;;17.48;;
4430;SDS011;2228;48.140;11.488;2022-12-18T14:03:16;37.25;;;17.73;;
4430;SDS011;2228;48.140;11.488;2022-12-18T14:05:45;36.65;;;17.50;;
4430;SDS011;2228;48.140;11.488;2022-12-18T14:08:27;37.73;;;17.83;;
4430;SDS011;2228;48.140;11.488;2022-12-18T14:11:01;37.10;;;16.73;;
4430;SDS011;2228;48.140;11.488;2022-12-18T14:13:31;39.00;;;18.17;;
4430;SDS011;2228;48.140;11.488;2022-12-18T14:16:00;38.22;;;18.20;;
4430;SDS011;2228;48.140;11.488;2022-12-18T14:18:31;41.67;;;18.63;;
4430;SDS011;2228;48.140;11.488;2022-12-18T14:21:04;42.28;;;20.60;;
4430;SDS011;2228;48.140;11.488;2022-12-18T14:23:33;38.65;;;17.55;;
4430;SDS011;2228;48.140;11.488;2022-12-18T14:26:17;37.80;;;18.55;;
4430;SDS011;2228;48.140;11.488;2022-12-18T14:28:47;42.05;;;20.15;;
4430;SDS011;2228;48.140;11.488;2022-12-18T14:31:18;45.72;;;21.20;;
4430;SDS011;2228;48.140;11.488;2022-12-18T14:33:46;42.30;;;19.10;;
4430;SDS011;2228;48.140;11.488;2022-12-18T14:36:15;41.78;;;18.67;;
4430;SDS011;2228;48.140;11.488;2022-12-18T14:38:43;39.80;;;18.80;;
4430;SDS011;2228;48.140;11.488;2022-12-18T14:41:17;46.00;;;19.80;;
4430;SDS011;2228;48.140;11.488;2022-12-18T14:43:45;47.60;;;21.05;;
4430;SDS011;2228;48.140;11.488;2022-12-18T14:46:30;42.95;;;20.55;;
4430;SDS011;2228;48.140;11.488;2022-12-18T14:49:01;37.75;;;18.25;;
4430;SDS011;2228;48.140;11.488;2022-12-18T14:51:31;43.42;;;20.45;;
4430;SDS011;2228;48.140;11.488;2022-12-18T14:54:01;44.45;;;20.10;;
4430;SDS011;2228;48.140;11.488;2022-12-18T14:56:35;46.00;;;21.02;;
4430;SDS011;2228;48.140;11.488;2022-12-18T14:59:03;44.53;;;19.88;;
4430;SDS011;2228;48.140;11.488;2022-12-18T15:01:33;39.13;;;18.23;;
4430;SDS011;2228;48.140;11.488;2022-12-18T15:04:03;45.78;;;20.40;;
4430;SDS011;2228;48.140;11.488;2022-12-18T15:06:32;47.25;;;19.67;;
4430;SDS011;2228;48.140;11.488;2022-12-18T15:09:02;42.70;;;19.37;;